Aktualne dane pomiarowe

Uwaga, wersja testowa! Automatyczne pobieranie danych za pomocą narzędzi lub skryptów to umożliwiających jest zabronione.

Dane meteo z obszaru Polski uzyskane na podstawie depesz SYNOP pobieranych co godzinę z NWS. Najedź myszką na symbol przedstawiony w tabeli, aby uzyskać informacje co do jego znaczenia. Prosimy pamiętać, że to testowa wersja strony, która jeszcze nie jest ukończona. Stworzono również jest krótki FAQ dotyczący korzystania z tej podstrony Anomalie temperatury w chwili obecnej odniesione są do okresu referencyjnego 1951-2016. Okres ten będzie później zmieniony na 1981-2010. Kliknij ikonę aby pobrać plik CSV. Kliknij ikonę aby wygenerować mapę synoptyczną dla danego terminu.

Wybierz Datę:    

        

Tomaszów Mazowiecki (12466)

Dane terminowe dla wybranej stacji. Kliknij datę, aby otrzymać dane z tego terminu dla wszystkich stacji.

TemperaturaZachmurzenieWiatrCiśnienieOpadyPogoda
 Data t td wb tx tn tg rh  Nt Nl Cl Cm Ch ws wd g1 g2 wx mslp ppp ch 24h 12h t ww ww w1 w2  
2019-06-19 22:00:00 18.2 16.4 16.9--- 89---2wx---1011.3 989.9----------
2019-06-19 21:00:00 18.8 16.4 17.1--- 86---1wx---1011.7 990.3----------
2019-06-19 20:00:00 19.5 16.4 17.3--- 82---1wx---1011.1 989.8----------
2019-06-19 19:00:00 21.1 16.1 17.7--- 73---1wx---1011.3 990.1----------
2019-06-19 18:00:00 22.4 16.2 18.3--- 68---5wx---1011.7 990.6----------
2019-06-19 17:00:00 25.1 16.0 19.2--- 57---5wx---1010.8 989.9----------
2019-06-19 16:00:00 26.8 15.6 19.6--- 50---6wx---1010.6 989.8----------
2019-06-19 15:00:00 28.5 16.8 20.9--- 49---4wx---1010.3 989.6----------
2019-06-19 14:00:00 28.8 15.7 20.4--- 4510.0wxwxwxwx4wx---1010.6 990.0 -1.8---------
2019-06-19 13:00:00 30.7 13.0 19.8--- 3410.0wxwxwxwx3wx---1010.9 990.4 -1.9---------
2019-06-19 12:00:00 29.5 12.9 19.3--- 3610.0wxwxwxwx3wx---1011.6 991.0 -1.7---------
2019-06-19 11:00:00 29.3 15.5 20.5--- 4310.0wxwxwxwx3wx---1012.4 991.8 -1.3---------
2019-06-19 10:00:00 28.2 16.8 20.8--- 5010.0wxwxwxwx4wx---1013.0 992.3 -1.3---------
2019-06-19 09:00:00 27.0 17.1 20.5--- 5510.0wxwxwxwx3wx---1013.5 992.7 -1.2---------
2019-06-19 08:00:00 26.0 16.3 19.7--- 5510.0wxwxwxwx6wx---1013.9 993.0 -1.0---------
2019-06-19 07:00:00 24.5 15.9 18.9--- 5910.0wxwxwxwx5wx---1014.5 993.5 -0.6---------
2019-06-19 06:00:00 22.5 15.9 18.1--- 6610.0wxwxwxwx4wx---1015.1 993.9 -0.3---------
2019-06-19 05:00:00 20.1 15.5 17.0--- 7510.0wxwxwx5wx---1015.4 994.0 -0.4---------
2019-06-19 04:00:00 18.7 15.2 16.3--- 8010.0wxwxwx2wx---1015.6 994.1 -0.7---------
2019-06-19 03:00:00 18.2 14.9 15.9--- 8110.0wxwxwx2wx---1015.6 994.1 -1.1---------
2019-06-19 02:00:00 18.0 14.7 15.7--- 81---2wx---1015.9 994.4----------
2019-06-19 01:00:00 17.5 14.6 15.5--- 83---1wx---1016.4 994.8----------
2019-06-19 00:00:00 16.4 13.9 14.7--- 85---0wx---1016.9 995.2----------
2019-06-18 23:00:00 17.3 13.4 14.7--- 7810.0wx-wx2wx---1017.1 995.5 -0.7---------
2019-06-18 22:00:00 17.9 12.8 14.6--- 7210.0wx-wx1wx---1017.5 995.9 -0.1---------
2019-06-18 21:00:00 17.9 13.0 14.7--- 7310.0wx-wxwx1wx---1017.8 996.2 0.4---------
2019-06-18 20:00:00 19.6 12.6 15.2--- 6410.0wx-wxwx1wx---1017.7 996.2 0.4---------
2019-06-18 19:00:00 21.0 12.7 15.8--- 5910.0wx-wxwx1wx---1017.4 996.1 -0.1---------
2019-06-18 18:00:00 22.9 12.8 16.6--- 5310.0wx-wxwx2wx---1017.0 995.8 -0.8---------
2019-06-18 17:00:00 24.3 12.3 17.0--- 4710.0wxwxwxwx2wx---1017.0 995.9 -1.4---------
2019-06-18 16:00:00 25.3 12.2 17.3--- 4410.0wxwxwxwx3wx---1017.2 996.2 -1.6---------
2019-06-18 15:00:00 25.4 12.0 17.3--- 4310.0wxwxwxwx3wx---1017.6 996.6 -1.6---------
2019-06-18 14:00:00 25.7 11.5 17.2--- 4110.0wxwxwxwx3wx---1018.2 997.2 -1.6---------
2019-06-18 13:00:00 25.0 12.3 17.2--- 4510.0wxwxwxwx3wx---1018.9 997.8 -1.2---------
2019-06-18 12:00:00 24.4 12.1 16.9--- 4610.0wxwxwx4wx---1019.4 998.3 -1.1---------
2019-06-18 11:00:00 23.9 12.3 16.8--- 4810.0wxwxwx3wx---1020.0 998.8 -1.0---------
2019-06-18 10:00:00 24.0 12.9 17.1--- 5010.0wxwxwx4wx---1020.2 999.0 -0.9---------
2019-06-18 09:00:00 22.8 12.9 16.6--- 5410.0wxwxwxwx3wx---1020.7 999.4 -0.8---------
2019-06-18 08:00:00 22.0 13.1 16.4--- 5710.0wxwxwxwx3wx---1021.2 999.8 -0.2---------
2019-06-18 07:00:00 20.6 12.6 15.6--- 6010.0wx-wx3wx---1021.4 999.9 0.1---------
2019-06-18 06:00:00 18.9 12.2 14.7--- 6510.0wx-wx3wx---1021.81000.2 0.4---------
2019-06-18 05:00:00 17.5 11.5 13.7--- 6810.0wx-wx2wx---1021.71000.0 0.3---------
2019-06-18 04:00:00 15.0 12.5 13.3--- 8510.0wx-wx1wx---1021.7 999.8 0.1---------
2019-06-18 03:00:00 12.3 11.0 11.4--- 9210.0wx-wx1wx---1021.9 999.8 -0.1---------
2019-06-18 02:00:00 11.8 10.7 11.0--- 93---2wx---1021.8 999.7----------
2019-06-18 01:00:00 12.6 11.5 11.8--- 93---2wx---1021.8 999.7----------
2019-06-18 00:00:00 13.6 11.8 12.3--- 89---1wx---1021.8 999.8----------
1.7 ms

 

Print Friendly, PDF & Email